Main page
METAR-TAF:

METAR-TAF

Airports :

Dehradun Airport

Dehradun, India

latitude: 30-11-23N, longitude: 78-10-49E, elevation: 558 m

Current weather observation

The report was made 2 hours and 12 minutes ago, at 14:30 UTC
Wind 4 kt from the East
Temperature 25°C
Humidity 94%
Pressure 1004 hPa
Visibility: 3000 m
Scattered clouds at a height of 2000 ft
Few clouds at a height of 4000 ft, Cumulonimbus.
Overcast at a height of 6000 ft
thunderstorm, rain

METAR: VIDN 071430Z 10004KT 3000 TSRA SCT020 FEW040CB OVC060 25/24 Q1004

Time: 22:12 (16:42 UTC)


TAF: missing

Weather observations and forecasts of more than 4000 airports (METAR and TAF reports).

The available stations are represented by yellow and red dots on the map.

Hover mouse over dot to see the name of the station.

Then click to see weather observations and forecasts.

To change the map : click on the green buttons with a black cross to zoom in, on the green button with a dash to zoom out, or on the green arrows for adjacent maps.


METAR-TAF: